Time;durP1;ratioP1;P1;durP2;ratioP2;P2;SDS_P1;SDS_P2;PMS_P1;PMS_P2;Temp;Humidity;BMP_temperature;BMP_pressure;BME280_temperature;BME280_humidity;BME280_pressure;Samples;Min_cycle;Max_cycle;Signal;HPM_P1;HPM_P2
2023/05/04 00:01:00;;;;;;;3.85;1.80;;;13.70;72.80;;;;;;4900848;29;20031;-83
2023/05/04 00:03:25;;;;;;;3.33;1.80;;;13.70;72.80;;;;;;4901784;29;20017;-82
2023/05/04 00:05:51;;;;;;;4.20;1.70;;;13.70;72.80;;;;;;4901482;29;20032;-82
2023/05/04 00:08:16;;;;;;;2.45;1.80;;;13.70;72.80;;;;;;4901516;29;20482;-82
2023/05/04 00:10:42;;;;;;;2.75;1.70;;;13.70;72.90;;;;;;4901269;29;20055;-81
2023/05/04 00:13:07;;;;;;;3.83;2.10;;;13.70;72.80;;;;;;4900699;29;20032;-82
2023/05/04 00:15:33;;;;;;;4.28;2.05;;;13.70;72.90;;;;;;4901128;29;20036;-82
2023/05/04 00:17:58;;;;;;;3.60;1.77;;;13.70;72.90;;;;;;4900556;29;20130;-82
2023/05/04 00:20:24;;;;;;;3.65;1.88;;;13.70;73.50;;;;;;4900028;29;20028;-82
2023/05/04 00:22:49;;;;;;;3.92;1.88;;;13.70;73.00;;;;;;4900303;29;20024;-82
2023/05/04 00:25:15;;;;;;;3.15;1.70;;;13.70;73.00;;;;;;4900548;29;20033;-82
2023/05/04 00:27:40;;;;;;;3.42;1.75;;;13.70;73.00;;;;;;4900721;29;20028;-83
2023/05/04 00:30:07;;;;;;;2.83;1.80;;;13.70;73.00;;;;;;4900383;29;20482;-82
2023/05/04 00:32:34;;;;;;;3.22;1.73;;;13.70;73.00;;;;;;4900451;29;20040;-81
2023/05/04 00:34:59;;;;;;;2.95;1.73;;;13.70;73.00;;;;;;4899929;29;20114;-82
2023/05/04 00:37:25;;;;;;;3.17;1.70;;;13.70;73.00;;;;;;4900160;29;20515;-82
2023/05/04 00:39:50;;;;;;;5.10;2.28;;;13.70;73.00;;;;;;4900356;29;20034;-82
2023/05/04 00:42:16;;;;;;;3.45;1.88;;;13.70;73.00;;;;;;4900224;29;20446;-82
2023/05/04 00:44:43;;;;;;;2.70;1.52;;;13.70;73.00;;;;;;4907125;29;20032;-83
2023/05/04 00:47:09;;;;;;;4.20;1.90;;;13.60;72.90;;;;;;4910431;29;20040;-84
2023/05/04 00:49:34;;;;;;;3.28;1.85;;;13.70;73.00;;;;;;4909204;29;20034;-84
2023/05/04 00:52:01;;;;;;;3.58;1.70;;;13.70;73.00;;;;;;4907958;29;20032;-83
2023/05/04 00:54:26;;;;;;;2.63;1.48;;;13.70;73.00;;;;;;4908009;29;20577;-83
2023/05/04 00:56:52;;;;;;;3.33;1.83;;;13.70;73.00;;;;;;4907600;29;20028;-82
2023/05/04 00:59:18;;;;;;;3.78;1.77;;;13.60;73.00;;;;;;4904994;29;20039;-83
2023/05/04 01:01:43;;;;;;;3.30;1.80;;;13.70;73.10;;;;;;4907513;29;20080;-83
2023/05/04 01:04:09;;;;;;;3.42;2.00;;;13.70;73.10;;;;;;4907425;29;20024;-82
2023/05/04 01:06:44;;;;;;;3.25;1.92;;;13.70;73.10;;;;;;4907320;29;20035;-82
2023/05/04 01:09:30;;;;;;;3.17;1.90;;;13.70;73.10;;;;;;4906596;29;20024;-83
2023/05/04 01:12:23;;;;;;;2.63;1.83;;;13.70;73.10;;;;;;4906665;29;20032;-83
2023/05/04 01:14:50;;;;;;;2.65;1.63;;;13.70;73.10;;;;;;4906381;29;20024;-83
2023/05/04 01:17:15;;;;;;;3.80;2.00;;;13.70;73.10;;;;;;4907674;29;20367;-82
2023/05/04 01:19:40;;;;;;;3.40;2.10;;;13.70;73.10;;;;;;4907040;29;20080;-81
2023/05/04 01:22:06;;;;;;;3.80;1.90;;;13.70;73.10;;;;;;4899169;29;20044;-82
2023/05/04 01:24:32;;;;;;;3.65;1.83;;;13.60;73.10;;;;;;4905333;29;20040;-82
2023/05/04 01:27:06;;;;;;;3.53;1.83;;;13.50;73.10;;;;;;4905065;29;20025;-82
2023/05/04 01:29:31;;;;;;;3.55;1.80;;;13.60;73.10;;;;;;4899193;29;20047;-81
2023/05/04 01:31:58;;;;;;;2.95;1.90;;;13.70;73.20;;;;;;4904670;29;20417;-82
2023/05/04 01:34:24;;;;;;;2.85;1.70;;;13.60;73.20;;;;;;4904890;29;20028;-83
2023/05/04 01:36:50;;;;;;;3.92;2.00;;;13.60;73.10;;;;;;4904834;29;20028;-82
2023/05/04 01:39:16;;;;;;;2.40;1.58;;;13.70;73.20;;;;;;4906768;29;20047;-84
2023/05/04 01:41:41;;;;;;;3.20;1.60;;;13.70;73.20;;;;;;4908794;29;20041;-83
2023/05/04 01:44:07;;;;;;;3.55;2.03;;;13.60;73.20;;;;;;4926443;29;20116;-83
2023/05/04 01:46:32;;;;;;;2.53;1.67;;;13.60;73.20;;;;;;4908537;29;20055;-83
2023/05/04 01:48:58;;;;;;;3.17;1.77;;;13.60;73.70;;;;;;4910420;29;20553;-82
2023/05/04 01:51:23;;;;;;;3.17;1.95;;;13.60;73.20;;;;;;4910391;29;20072;-83
2023/05/04 01:53:49;;;;;;;2.67;1.63;;;13.70;73.30;;;;;;4906001;29;20032;-83
2023/05/04 01:56:14;;;;;;;3.55;2.20;;;13.60;73.30;;;;;;4904881;29;20028;-83
2023/05/04 01:58:40;;;;;;;3.22;1.70;;;13.60;73.30;;;;;;4905350;29;20028;-82
2023/05/04 02:01:06;;;;;;;4.38;2.03;;;13.60;73.30;;;;;;4904758;29;20023;-82
2023/05/04 02:03:31;;;;;;;3.47;1.80;;;13.60;73.30;;;;;;4923329;29;20025;-83
2023/05/04 02:05:56;;;;;;;4.32;1.85;;;13.60;73.30;;;;;;4938007;29;20042;-82
2023/05/04 02:08:22;;;;;;;2.63;1.77;;;13.70;73.40;;;;;;4923684;29;20028;-81
2023/05/04 02:10:48;;;;;;;2.80;1.80;;;13.70;73.40;;;;;;4909983;29;20489;-83
2023/05/04 02:13:13;;;;;;;3.42;1.77;;;13.60;73.30;;;;;;4905500;29;20036;-82
2023/05/04 02:15:40;;;;;;;3.42;1.90;;;13.60;73.30;;;;;;4922495;29;20115;-82
2023/05/04 02:18:05;;;;;;;4.28;2.10;;;13.60;73.40;;;;;;4909651;29;20509;-83
2023/05/04 02:20:31;;;;;;;2.63;1.70;;;13.60;73.40;;;;;;4908295;29;20039;-82
2023/05/04 02:22:56;;;;;;;3.00;1.85;;;13.60;73.40;;;;;;4907632;29;20067;-83
2023/05/04 02:25:22;;;;;;;2.80;1.77;;;13.50;73.30;;;;;;4907524;29;20028;-82
2023/05/04 02:27:47;;;;;;;2.63;1.80;;;13.60;73.40;;;;;;4907986;29;20055;-82
2023/05/04 02:30:13;;;;;;;3.35;1.73;;;13.60;73.40;;;;;;4906846;29;20127;-83
2023/05/04 02:32:39;;;;;;;4.20;2.05;;;13.60;73.40;;;;;;4906891;29;20056;-83
2023/05/04 02:35:05;;;;;;;2.55;1.77;;;13.60;73.40;;;;;;4906801;29;20028;-82
2023/05/04 02:37:31;;;;;;;4.25;1.95;;;13.60;73.50;;;;;;4923764;29;20032;-83
2023/05/04 02:39:56;;;;;;;2.80;1.90;;;13.60;73.50;;;;;;4923845;29;20450;-82
2023/05/04 02:42:22;;;;;;;3.10;1.95;;;13.60;73.50;;;;;;4907035;29;20032;-82
2023/05/04 02:44:47;;;;;;;3.22;1.92;;;13.60;73.50;;;;;;4907084;29;20046;-82
2023/05/04 02:47:13;;;;;;;3.78;2.03;;;13.60;73.50;;;;;;4903698;29;20390;-82
2023/05/04 02:49:38;;;;;;;3.35;2.00;;;13.60;73.50;;;;;;4902946;29;20052;-82
2023/05/04 02:52:04;;;;;;;3.47;1.92;;;13.60;73.50;;;;;;4906281;29;20532;-82
2023/05/04 02:54:29;;;;;;;3.80;2.00;;;13.60;73.50;;;;;;4906450;29;20503;-83
2023/05/04 02:56:55;;;;;;;2.88;1.95;;;13.60;73.50;;;;;;4905455;29;20028;-82
2023/05/04 02:59:20;;;;;;;3.25;1.92;;;13.60;73.50;;;;;;4901582;29;20514;-82
2023/05/04 03:01:46;;;;;;;2.92;1.85;;;13.60;73.50;;;;;;4903999;29;20063;-82
2023/05/04 03:04:11;;;;;;;3.20;1.92;;;13.60;73.60;;;;;;4903887;29;20102;-82
2023/05/04 03:06:37;;;;;;;4.50;2.00;;;13.60;73.60;;;;;;4901649;29;20028;-81
2023/05/04 03:09:03;;;;;;;3.92;1.88;;;13.60;73.60;;;;;;4922212;29;20417;-82
2023/05/04 03:11:28;;;;;;;2.85;1.95;;;13.60;73.50;;;;;;4902717;29;20111;-82
2023/05/04 03:13:54;;;;;;;2.75;1.83;;;13.60;73.60;;;;;;4902344;29;20063;-81
2023/05/04 03:16:20;;;;;;;4.13;2.10;;;13.60;73.60;;;;;;4904236;29;20505;-82
2023/05/04 03:18:45;;;;;;;3.53;1.95;;;13.60;73.60;;;;;;4902139;29;20031;-81
2023/05/04 03:21:11;;;;;;;4.18;2.17;;;13.60;73.60;;;;;;4901798;29;20032;-81
2023/05/04 03:23:36;;;;;;;3.45;2.00;;;13.60;73.60;;;;;;4901394;29;20536;-82
2023/05/04 03:26:02;;;;;;;3.35;2.00;;;13.60;73.60;;;;;;4901392;29;20065;-82
2023/05/04 03:28:27;;;;;;;3.35;1.98;;;13.70;73.70;;;;;;4901347;29;20031;-82
2023/05/04 03:30:53;;;;;;;2.80;1.80;;;13.60;73.60;;;;;;4918593;29;20544;-82
2023/05/04 03:33:18;;;;;;;3.85;2.10;;;13.60;73.60;;;;;;4902956;29;20053;-80
2023/05/04 03:35:44;;;;;;;3.38;1.90;;;13.60;73.60;;;;;;4902662;29;20025;-83
2023/05/04 03:38:10;;;;;;;4.30;1.83;;;13.60;73.70;;;;;;4903019;29;20032;-82
2023/05/04 03:40:36;;;;;;;3.83;2.08;;;13.60;73.70;;;;;;4900873;29;20024;-82
2023/05/04 03:43:02;;;;;;;2.55;1.80;;;13.60;73.70;;;;;;4902229;29;20025;-82
2023/05/04 03:45:28;;;;;;;4.03;2.22;;;13.60;73.70;;;;;;4903450;29;20031;-82
2023/05/04 03:47:54;;;;;;;3.33;2.05;;;13.60;73.60;;;;;;4901855;29;20101;-82
2023/05/04 03:50:21;;;;;;;4.05;2.08;;;13.60;73.70;;;;;;4901966;29;20055;-82
2023/05/04 03:52:46;;;;;;;3.05;1.95;;;13.60;73.70;;;;;;4901727;29;20493;-82
2023/05/04 03:55:12;;;;;;;3.65;1.83;;;13.60;73.70;;;;;;4901924;29;20043;-81
2023/05/04 03:57:37;;;;;;;3.20;2.00;;;13.60;74.20;;;;;;4901665;29;20092;-82
2023/05/04 04:00:04;;;;;;;3.92;2.05;;;13.60;73.70;;;;;;4901914;29;20043;-82
2023/05/04 04:02:30;;;;;;;3.25;1.90;;;13.60;73.70;;;;;;4901780;29;20052;-82
2023/05/04 04:04:56;;;;;;;2.95;1.90;;;13.60;73.70;;;;;;4905317;29;20116;-81
2023/05/04 04:07:21;;;;;;;3.40;2.00;;;13.60;74.20;;;;;;4916907;29;20024;-82
2023/05/04 04:09:47;;;;;;;4.43;2.20;;;13.60;73.70;;;;;;4917054;29;20028;-82
2023/05/04 04:12:12;;;;;;;3.40;1.83;;;13.60;73.70;;;;;;4917292;29;20463;-82
2023/05/04 04:14:38;;;;;;;3.75;2.20;;;13.60;73.70;;;;;;4916067;29;20028;-81
2023/05/04 04:17:03;;;;;;;3.08;1.83;;;13.60;73.70;;;;;;4916175;29;20067;-81
2023/05/04 04:19:29;;;;;;;3.75;2.25;;;13.60;73.70;;;;;;4916655;29;20032;-84
2023/05/04 04:21:54;;;;;;;3.83;2.15;;;13.60;73.70;;;;;;4899899;29;20047;-80
2023/05/04 04:24:20;;;;;;;3.40;2.00;;;13.60;74.20;;;;;;4898166;29;20036;-86
2023/05/04 04:26:45;;;;;;;3.33;2.10;;;13.60;73.60;;;;;;4911717;29;20032;-82
2023/05/04 04:29:11;;;;;;;4.32;2.20;;;13.60;73.70;;;;;;4917826;29;20047;-81
2023/05/04 04:31:36;;;;;;;2.90;2.00;;;13.60;73.60;;;;;;4915863;29;20028;-82
2023/05/04 04:34:02;;;;;;;3.42;2.13;;;13.60;73.70;;;;;;4919663;29;20036;-83
2023/05/04 04:36:28;;;;;;;3.75;2.05;;;13.60;73.70;;;;;;4920163;29;20100;-82
2023/05/04 04:38:53;;;;;;;3.33;2.00;;;13.60;73.60;;;;;;4921224;29;20020;-81
2023/05/04 04:41:19;;;;;;;3.25;2.00;;;13.60;73.60;;;;;;4919836;29;20025;-83
2023/05/04 04:43:45;;;;;;;4.13;2.33;;;13.60;73.60;;;;;;4922277;29;20032;-83
2023/05/04 04:46:10;;;;;;;3.80;2.20;;;13.60;73.60;;;;;;4920216;29;20053;-83
2023/05/04 04:48:36;;;;;;;4.05;2.45;;;13.60;73.60;;;;;;4919102;29;20561;-82
2023/05/04 04:51:01;;;;;;;4.10;2.17;;;13.60;73.50;;;;;;4918524;29;20052;-83
2023/05/04 04:53:27;;;;;;;3.42;2.00;;;13.50;73.40;;;;;;4918592;29;20493;-81
2023/05/04 04:55:53;;;;;;;4.50;2.17;;;13.60;73.50;;;;;;4917945;29;20159;-83
2023/05/04 04:58:18;;;;;;;4.03;2.10;;;13.60;73.50;;;;;;4916615;29;20043;-81
2023/05/04 05:00:44;;;;;;;3.85;2.35;;;13.60;73.50;;;;;;4915888;29;20032;-81
2023/05/04 05:03:12;;;;;;;4.07;2.30;;;13.60;73.50;;;;;;4915457;29;20024;-85
2023/05/04 05:05:37;;;;;;;4.00;2.20;;;14.80;74.10;;;;;;4914644;29;20028;-86
2023/05/04 05:08:06;;;;;;;4.18;2.50;;;13.60;73.40;;;;;;4915812;29;20316;-82
2023/05/04 05:10:31;;;;;;;4.85;2.28;;;13.60;73.50;;;;;;4919190;29;20028;-86
2023/05/04 05:12:57;;;;;;;4.05;2.22;;;13.60;73.40;;;;;;4914819;29;20032;-82
2023/05/04 05:15:22;;;;;;;3.83;2.13;;;13.60;73.50;;;;;;4915163;29;20053;-82
2023/05/04 05:17:48;;;;;;;3.95;2.25;;;13.60;73.40;;;;;;4916564;29;20028;-83
2023/05/04 05:20:14;;;;;;;4.18;2.33;;;13.60;73.50;;;;;;4912973;29;20036;-83
2023/05/04 05:22:40;;;;;;;3.65;2.22;;;13.60;73.40;;;;;;4915090;29;20041;-82
2023/05/04 05:25:08;;;;;;;4.00;2.33;;;13.60;73.50;;;;;;4915498;29;20081;-87
2023/05/04 05:27:34;;;;;;;4.57;2.40;;;13.60;73.50;;;;;;4918314;29;20024;-81
2023/05/04 05:30:04;;;;;;;3.95;2.38;;;13.60;73.50;;;;;;4914223;29;20065;-79
2023/05/04 05:32:30;;;;;;;3.72;2.22;;;13.60;73.40;;;;;;4915961;29;20043;-84
2023/05/04 05:34:56;;;;;;;3.60;2.15;;;13.60;73.40;;;;;;4915307;29;20024;-80
2023/05/04 05:37:22;;;;;;;4.00;2.15;;;13.60;73.40;;;;;;4916718;29;20024;-81
2023/05/04 05:39:47;;;;;;;3.38;2.17;;;13.60;73.40;;;;;;4936155;29;20035;-80
2023/05/04 05:42:13;;;;;;;3.67;2.30;;;13.60;73.40;;;;;;4936891;29;20425;-80
2023/05/04 05:44:38;;;;;;;3.45;2.13;;;13.60;73.40;;;;;;4936803;29;20091;-82
2023/05/04 05:47:04;;;;;;;4.32;2.20;;;13.60;73.30;;;;;;4938502;29;20039;-79
2023/05/04 05:49:30;;;;;;;4.10;2.03;;;13.60;73.30;;;;;;4937920;29;20023;-80
2023/05/04 05:51:57;;;;;;;3.83;2.20;;;13.60;73.20;;;;;;4922274;29;20027;-80
2023/05/04 05:54:23;;;;;;;3.55;2.20;;;13.60;73.20;;;;;;4937914;29;20178;-80
2023/05/04 05:56:49;;;;;;;4.22;2.35;;;13.60;73.20;;;;;;4934295;29;20122;-79
2023/05/04 05:59:14;;;;;;;3.65;2.22;;;13.70;73.20;;;;;;4932856;29;20400;-81
2023/05/04 06:01:40;;;;;;;4.63;2.42;;;13.60;73.10;;;;;;4932422;29;20032;-79
2023/05/04 06:04:06;;;;;;;4.47;2.40;;;13.60;73.10;;;;;;4931710;29;20324;-78
2023/05/04 06:06:31;;;;;;;4.43;2.38;;;13.70;73.20;;;;;;4932044;29;20489;-82
2023/05/04 06:08:59;;;;;;;4.05;2.20;;;13.60;73.20;;;;;;4932088;29;20504;-82
2023/05/04 06:11:25;;;;;;;3.60;2.30;;;13.70;73.20;;;;;;4932912;29;20062;-79
2023/05/04 06:13:50;;;;;;;3.85;2.20;;;13.60;73.10;;;;;;4933564;29;20078;-80
2023/05/04 06:16:15;;;;;;;3.05;2.05;;;13.70;73.20;;;;;;4932085;29;20020;-83
2023/05/04 06:18:41;;;;;;;3.53;2.22;;;13.70;73.20;;;;;;4931774;29;20043;-79
2023/05/04 06:21:07;;;;;;;4.05;2.40;;;13.70;73.20;;;;;;4932996;29;20034;-78
2023/05/04 06:23:33;;;;;;;4.38;2.33;;;13.70;73.10;;;;;;4931966;29;20435;-81
2023/05/04 06:25:58;;;;;;;3.92;2.42;;;13.70;73.20;;;;;;4931986;29;20028;-81
2023/05/04 06:28:24;;;;;;;4.43;2.40;;;13.70;73.10;;;;;;4931412;29;20068;-78
2023/05/04 06:30:49;;;;;;;3.83;2.50;;;13.70;73.10;;;;;;4913591;29;20032;-79
2023/05/04 06:33:15;;;;;;;3.70;2.20;;;13.70;73.10;;;;;;4912050;29;20238;-79
2023/05/04 06:35:40;;;;;;;3.50;2.38;;;13.70;73.10;;;;;;4912443;29;20079;-79
2023/05/04 06:38:06;;;;;;;3.60;2.13;;;13.70;73.10;;;;;;4914013;29;20435;-80
2023/05/04 06:40:31;;;;;;;3.97;2.33;;;13.70;73.10;;;;;;4915044;29;20044;-80
2023/05/04 06:42:57;;;;;;;5.20;2.50;;;13.70;73.10;;;;;;4913316;29;20028;-78
2023/05/04 06:45:22;;;;;;;3.70;2.25;;;13.70;73.00;;;;;;4913307;29;20024;-78
2023/05/04 06:47:48;;;;;;;3.70;2.20;;;13.70;73.00;;;;;;4913085;29;20396;-87
2023/05/04 06:50:14;;;;;;;3.78;2.35;;;13.70;73.00;;;;;;4921016;29;20043;-79
2023/05/04 06:52:42;;;;;;;3.50;2.38;;;13.80;73.00;;;;;;4912995;29;20259;-80
2023/05/04 06:55:08;;;;;;;4.25;2.20;;;13.80;72.90;;;;;;4903954;29;20040;-78
2023/05/04 06:57:33;;;;;;;3.90;2.33;;;13.80;72.90;;;;;;4912421;29;20039;-79
2023/05/04 06:59:59;;;;;;;3.72;2.35;;;13.80;73.30;;;;;;4912980;29;20103;-79
2023/05/04 07:02:24;;;;;;;5.25;2.40;;;13.90;72.80;;;;;;4914310;29;20032;-82
2023/05/04 07:04:51;;;;;;;4.45;2.45;;;13.90;72.90;;;;;;4913629;29;20068;-80
2023/05/04 07:07:17;;;;;;;4.15;2.50;;;13.90;72.60;;;;;;4914413;29;20032;-83
2023/05/04 07:09:45;;;;;;;4.38;2.33;;;13.90;72.50;;;;;;4897099;29;20467;-79
2023/05/04 07:12:11;;;;;;;3.25;2.20;;;14.00;72.50;;;;;;4912119;29;20115;-84
2023/05/04 07:14:36;;;;;;;4.50;2.30;;;14.00;72.40;;;;;;4912485;29;20111;-78
2023/05/04 07:17:02;;;;;;;4.55;2.42;;;14.00;72.30;;;;;;4913681;29;20057;-79
2023/05/04 07:19:27;;;;;;;4.00;2.20;;;14.00;72.30;;;;;;4912189;29;20059;-81
2023/05/04 07:21:53;;;;;;;4.35;2.30;;;14.10;72.30;;;;;;4914028;29;20032;-80
2023/05/04 07:24:18;;;;;;;3.83;2.33;;;14.10;72.20;;;;;;4917844;29;20032;-82
2023/05/04 07:26:44;;;;;;;4.93;2.60;;;14.00;72.20;;;;;;4918759;29;20067;-81
2023/05/04 07:29:10;;;;;;;4.95;2.47;;;14.10;72.20;;;;;;4911753;29;20068;-81
2023/05/04 07:31:37;;;;;;;4.97;2.40;;;14.10;72.30;;;;;;4912037;29;20374;-83
2023/05/04 07:34:03;;;;;;;6.03;2.60;;;14.10;72.30;;;;;;4912341;29;20076;-82
2023/05/04 07:36:28;;;;;;;5.07;2.22;;;14.20;72.50;;;;;;4912271;29;20096;-82
2023/05/04 07:38:54;;;;;;;3.88;2.38;;;14.10;72.50;;;;;;4911811;29;20122;-82
2023/05/04 07:41:20;;;;;;;3.50;2.10;;;14.10;72.40;;;;;;4921567;29;20125;-83
2023/05/04 07:43:46;;;;;;;4.60;2.10;;;14.10;72.40;;;;;;4913583;29;20036;-84
2023/05/04 07:46:12;;;;;;;5.05;2.13;;;14.10;72.30;;;;;;4914298;29;20020;-85
2023/05/04 07:48:38;;;;;;;4.57;2.40;;;14.10;72.30;;;;;;4919108;29;20053;-84
2023/05/04 07:51:04;;;;;;;4.60;2.50;;;14.20;72.40;;;;;;4920815;29;20458;-82
2023/05/04 07:53:29;;;;;;;5.57;2.50;;;14.20;72.40;;;;;;4917937;29;20035;-87
2023/05/04 08:09:23;;;;;;;4.78;2.65;;;14.20;72.30;;;;;;4931071;29;20082;-83
2023/05/04 08:22:54;;;;;;;3.58;2.17;;;14.30;72.10;;;;;;4851395;29;20485;-84
2023/05/04 08:29:33;;;;;;;;;;;;;;;;;;;;;
2023/05/04 08:32:22;;;;;;;4.47;2.38;;;14.40;72.00;;;;;;4749608;30;20426;-85
2023/05/04 08:46:42;;;;;;;5.63;2.40;;;14.50;71.90;;;;;;4679545;30;20203;-85
2023/05/04 08:50:07;;;;;;;4.03;2.38;;;14.50;71.80;;;;;;4678851;30;20042;-85
2023/05/04 09:12:54;;;;;;;3.42;2.28;;;14.60;71.80;;;;;;4786704;29;20592;-86
2023/05/04 09:29:31;;;;;;;;;;;;;;;;;;;;;
2023/05/04 09:36:06;;;;;;;4.78;2.40;;;14.60;71.80;;;;;;4764194;30;20043;-80
2023/05/04 09:39:19;;;;;;;3.85;2.40;;;14.70;71.90;;;;;;4812984;29;20030;-85
2023/05/04 09:56:01;;;;;;;4.70;2.70;;;14.70;71.90;;;;;;4756870;30;20173;-83
2023/05/04 09:58:33;;;;;;;4.00;2.30;;;14.70;72.00;;;;;;4764723;29;20560;-84
2023/05/04 10:49:06;;;;;;;;;;;;;;;;;;;;;
2023/05/04 10:51:34;;;;;;;4.82;2.22;;;14.80;71.90;;;;;;4837985;29;20044;-83
2023/05/04 10:54:00;;;;;;;3.45;2.20;;;14.90;72.40;;;;;;4862106;29;20257;-80
2023/05/04 10:56:31;;;;;;;3.58;2.17;;;14.90;72.50;;;;;;4877321;29;20569;-82
2023/05/04 11:03:01;;;;;;;3.72;2.03;;;14.80;72.00;;;;;;4821467;29;20053;-83
2023/05/04 11:06:07;;;;;;;3.63;2.17;;;14.80;72.00;;;;;;4861892;29;20071;-83
2023/05/04 11:09:00;;;;;;;3.85;2.20;;;14.80;72.00;;;;;;4879429;29;20028;-82
2023/05/04 11:11:26;;;;;;;4.15;2.38;;;14.80;72.00;;;;;;4879580;29;20069;-86
2023/05/04 11:17:30;;;;;;;;;;;;;;;;;;;;;
2023/05/04 11:20:33;;;;;;;2.90;1.98;;;14.60;72.00;;;;;;4923370;29;20082;-83
2023/05/04 11:23:32;;;;;;;;;;;;;;;;;;;;;
2023/05/04 11:26:31;;;;;;;;;;;;;;;;;;;;;
2023/05/04 11:29:57;;;;;;;3.72;2.03;;;14.90;72.10;;;;;;4894600;29;20281;-83
2023/05/04 11:33:19;;;;;;;3.65;2.20;;;14.80;72.10;;;;;;4881516;29;20048;-84
2023/05/04 11:36:20;;;;;;;4.15;2.33;;;14.80;72.10;;;;;;4856784;29;20029;-84
2023/05/04 11:38:47;;;;;;;4.57;2.23;;;14.80;72.10;;;;;;4878989;29;20520;-82
2023/05/04 11:41:28;;;;;;;3.75;2.17;;;14.80;72.60;;;;;;4920729;29;20295;-82
2023/05/04 11:43:59;;;;;;;2.72;1.88;;;14.80;72.20;;;;;;4916976;29;20411;-82
2023/05/04 11:46:28;;;;;;;3.83;2.10;;;15.10;72.30;;;;;;4917095;29;20028;-87
2023/05/04 11:49:02;;;;;;;3.42;2.08;;;15.20;72.40;;;;;;4917613;29;20039;-83
2023/05/04 11:51:31;;;;;;;3.22;2.10;;;14.80;72.20;;;;;;4917316;29;20432;-84
2023/05/04 11:53:59;;;;;;;3.92;2.30;;;14.80;72.30;;;;;;4920069;29;20027;-85
2023/05/04 11:56:25;;;;;;;3.30;2.10;;;14.70;72.20;;;;;;4923989;29;20086;-83
2023/05/04 11:59:13;;;;;;;3.53;2.20;;;14.90;72.30;;;;;;4922170;29;20032;-85
2023/05/04 12:01:43;;;;;;;4.32;2.60;;;15.00;72.40;;;;;;4921591;29;20042;-84
2023/05/04 12:04:47;;;;;;;4.07;2.10;;;14.80;72.30;;;;;;4921160;29;20532;-86
2023/05/04 12:07:13;;;;;;;4.40;2.22;;;14.80;72.40;;;;;;4920940;29;20480;-84
2023/05/04 12:16:32;;;;;;;3.47;2.00;;;14.70;72.50;;;;;;4918970;29;20081;-83
2023/05/04 12:19:17;;;;;;;3.17;2.15;;;15.10;72.80;;;;;;4902756;29;20052;-84
2023/05/04 12:21:58;;;;;;;2.92;1.90;;;14.90;72.60;;;;;;4919253;29;20442;-84
2023/05/04 12:38:58;;;;;;;3.95;2.00;;;14.70;72.70;;;;;;4784861;30;20047;-83
2023/05/04 12:41:23;;;;;;;3.15;1.92;;;14.60;72.60;;;;;;4767455;30;20035;-82
2023/05/04 12:43:49;;;;;;;2.95;1.92;;;15.10;72.90;;;;;;4768395;30;20138;-81
2023/05/04 12:46:20;;;;;;;3.22;2.00;;;14.70;72.70;;;;;;4860318;29;20040;-82
2023/05/04 12:48:45;;;;;;;3.00;1.80;;;14.70;72.70;;;;;;4916825;29;20396;-87
2023/05/04 12:51:10;;;;;;;3.08;2.00;;;14.70;72.70;;;;;;4943950;29;20047;-87
2023/05/04 12:53:36;;;;;;;3.33;2.00;;;14.70;72.80;;;;;;4927753;29;20043;-87
2023/05/04 12:56:02;;;;;;;3.15;1.85;;;14.70;72.80;;;;;;4927750;29;20038;-86
2023/05/04 12:58:28;;;;;;;3.20;2.05;;;14.70;72.80;;;;;;4927380;29;20023;-87
2023/05/04 13:00:55;;;;;;;4.18;2.00;;;14.70;72.80;;;;;;4927506;29;20092;-86
2023/05/04 13:03:21;;;;;;;2.88;2.00;;;14.70;72.80;;;;;;4927600;29;20027;-86
2023/05/04 13:05:48;;;;;;;3.95;1.90;;;14.70;72.90;;;;;;4926930;29;20024;-86
2023/05/04 13:08:14;;;;;;;3.22;1.88;;;14.70;72.90;;;;;;4925223;29;20028;-85
2023/05/04 13:10:39;;;;;;;3.33;1.85;;;14.70;72.90;;;;;;4940298;29;20099;-84
2023/05/04 13:13:05;;;;;;;3.28;1.90;;;14.70;72.90;;;;;;4921975;29;20134;-84
2023/05/04 13:15:32;;;;;;;3.00;1.83;;;14.70;73.00;;;;;;4937261;29;20031;-84
2023/05/04 13:17:57;;;;;;;3.15;1.83;;;14.60;72.90;;;;;;4922152;29;20059;-84
2023/05/04 13:20:24;;;;;;;3.80;2.03;;;14.60;73.00;;;;;;4921867;29;20027;-84
2023/05/04 13:22:51;;;;;;;3.55;1.85;;;14.60;73.00;;;;;;4921171;29;20035;-84
2023/05/04 13:25:16;;;;;;;3.42;2.20;;;14.60;73.00;;;;;;4919744;29;20481;-84
2023/05/04 13:27:42;;;;;;;3.53;2.17;;;14.60;73.00;;;;;;4938337;29;20030;-85
2023/05/04 13:30:09;;;;;;;2.97;1.83;;;14.60;73.10;;;;;;4921263;29;20052;-84
2023/05/04 13:32:35;;;;;;;3.70;2.03;;;14.70;73.10;;;;;;4921989;29;20035;-84
2023/05/04 13:35:00;;;;;;;3.53;1.98;;;14.60;73.10;;;;;;4921602;29;20028;-85
2023/05/04 13:37:26;;;;;;;3.33;1.88;;;14.60;73.10;;;;;;4921019;29;20052;-85
2023/05/04 13:39:52;;;;;;;3.42;1.90;;;14.60;73.10;;;;;;4921353;29;20032;-84
2023/05/04 13:42:17;;;;;;;3.60;2.10;;;14.60;73.20;;;;;;4920562;29;20032;-84
2023/05/04 13:44:46;;;;;;;2.88;1.80;;;14.60;73.20;;;;;;4921752;29;20040;-85
2023/05/04 13:47:12;;;;;;;2.42;1.77;;;14.60;73.20;;;;;;4921906;29;20030;-85
2023/05/04 13:49:38;;;;;;;4.40;2.08;;;14.60;73.20;;;;;;4921453;29;20020;-85
2023/05/04 13:52:04;;;;;;;3.28;1.90;;;14.60;73.30;;;;;;4922009;29;20092;-85
2023/05/04 13:54:30;;;;;;;3.35;1.80;;;14.60;73.20;;;;;;4919556;29;20026;-85
2023/05/04 13:56:55;;;;;;;3.00;1.77;;;14.60;73.30;;;;;;4935965;29;20031;-85
2023/05/04 13:59:21;;;;;;;3.17;1.77;;;14.50;73.30;;;;;;4935706;29;20036;-85
2023/05/04 14:01:46;;;;;;;3.25;1.88;;;14.60;73.30;;;;;;4940900;29;20114;-85
2023/05/04 14:04:12;;;;;;;3.30;1.73;;;14.60;73.40;;;;;;4923771;29;20024;-85
2023/05/04 14:06:37;;;;;;;3.55;1.95;;;14.60;73.40;;;;;;4923911;29;20111;-85
2023/05/04 14:09:04;;;;;;;3.83;1.90;;;14.60;73.40;;;;;;4922292;29;20537;-85
2023/05/04 14:11:29;;;;;;;4.45;2.15;;;14.60;73.50;;;;;;4921597;29;20386;-84
2023/05/04 14:13:55;;;;;;;3.05;1.90;;;14.60;73.50;;;;;;4937796;29;20034;-85
2023/05/04 14:16:21;;;;;;;2.97;1.88;;;14.60;73.50;;;;;;4938333;29;20119;-85
2023/05/04 14:18:47;;;;;;;3.88;1.90;;;14.60;73.50;;;;;;4939268;29;20024;-85
2023/05/04 14:21:12;;;;;;;2.78;1.80;;;14.60;73.60;;;;;;4921679;29;20050;-85
2023/05/04 14:23:38;;;;;;;2.45;1.73;;;14.50;73.50;;;;;;4940554;29;20024;-85
2023/05/04 14:26:04;;;;;;;2.25;1.63;;;14.50;73.50;;;;;;4923680;29;20059;-85
2023/05/04 14:28:30;;;;;;;2.90;1.90;;;14.60;73.60;;;;;;4922982;29;20796;-85
2023/05/04 14:30:57;;;;;;;3.30;1.90;;;14.50;73.60;;;;;;4921373;29;20068;-85
2023/05/04 14:33:22;;;;;;;3.17;1.95;;;14.50;73.50;;;;;;4940444;29;20404;-85
2023/05/04 14:35:48;;;;;;;3.95;1.83;;;14.50;73.60;;;;;;4923918;29;20027;-86
2023/05/04 14:38:14;;;;;;;2.28;1.60;;;14.50;73.60;;;;;;4924800;29;20051;-85
2023/05/04 14:40:39;;;;;;;3.03;1.80;;;14.50;73.60;;;;;;4923158;29;20039;-86
2023/05/04 14:43:05;;;;;;;3.05;1.92;;;14.50;73.60;;;;;;4922385;29;20036;-87
2023/05/04 14:45:32;;;;;;;2.88;1.80;;;14.50;73.70;;;;;;4922116;29;20030;-88
2023/05/04 14:47:58;;;;;;;2.88;2.00;;;14.50;73.70;;;;;;4921042;29;20027;-85
2023/05/04 14:50:23;;;;;;;2.83;1.80;;;14.50;73.70;;;;;;4937989;29;20036;-88
2023/05/04 14:52:49;;;;;;;2.38;1.60;;;14.50;73.70;;;;;;4921492;29;20027;-89
2023/05/04 14:55:14;;;;;;;2.55;1.70;;;14.50;73.70;;;;;;4921326;29;20027;-86
2023/05/04 14:57:40;;;;;;;3.38;2.00;;;14.50;73.70;;;;;;4922397;29;20445;-84
2023/05/04 15:00:06;;;;;;;3.20;1.95;;;14.50;73.70;;;;;;4921915;29;20031;-82
2023/05/04 15:02:33;;;;;;;3.22;1.90;;;14.50;73.80;;;;;;4923046;29;20405;-87
2023/05/04 15:04:58;;;;;;;2.20;1.52;;;14.50;73.70;;;;;;4922291;29;20020;-88
2023/05/04 15:07:24;;;;;;;1.92;1.40;;;14.50;73.70;;;;;;4921225;29;20028;-84
2023/05/04 15:09:49;;;;;;;2.70;1.70;;;14.50;73.70;;;;;;4921118;29;20537;-86
2023/05/04 15:12:16;;;;;;;2.80;1.80;;;14.50;73.80;;;;;;4937796;29;20024;-87
2023/05/04 15:14:41;;;;;;;2.55;1.60;;;14.50;73.80;;;;;;4938744;29;20525;-86
2023/05/04 15:17:07;;;;;;;3.47;1.92;;;14.50;73.80;;;;;;4938694;29;20034;-87
2023/05/04 15:19:36;;;;;;;2.78;1.60;;;14.50;73.80;;;;;;4920417;29;20047;-87
2023/05/04 15:22:02;;;;;;;2.75;1.70;;;14.50;73.80;;;;;;4938536;29;20024;-85
2023/05/04 15:24:28;;;;;;;3.15;1.67;;;14.50;73.90;;;;;;4939729;29;20034;-86
2023/05/04 15:26:53;;;;;;;2.88;1.80;;;14.50;73.90;;;;;;4956744;28;20447;-87
2023/05/04 15:29:19;;;;;;;3.15;1.83;;;14.50;73.90;;;;;;4939218;29;20019;-87
2023/05/04 15:31:44;;;;;;;2.40;1.65;;;14.50;73.90;;;;;;4939247;29;20114;-86
2023/05/04 15:34:10;;;;;;;2.38;1.60;;;14.50;73.90;;;;;;4939555;29;20078;-83
2023/05/04 15:36:35;;;;;;;2.95;1.70;;;14.50;73.90;;;;;;4940069;29;20054;-85
2023/05/04 15:39:04;;;;;;;2.65;1.60;;;14.50;73.90;;;;;;4931225;29;20028;-82
2023/05/04 15:41:29;;;;;;;2.80;1.60;;;14.40;73.90;;;;;;4920496;29;20087;-89
2023/05/04 15:43:55;;;;;;;2.30;1.55;;;14.50;74.00;;;;;;4926570;29;20023;-88
2023/05/04 15:46:20;;;;;;;2.50;1.65;;;14.50;73.90;;;;;;4927810;29;20024;-89